createdAt,value
2022-12-12T00:02:17.367Z,-4.31
2022-12-12T00:07:49.015Z,-4.37
2022-12-12T00:13:24.618Z,-4.74
2022-12-12T00:16:14.236Z,-4.73
2022-12-12T00:21:50.506Z,-5.07
2022-12-12T00:27:25.402Z,-4.90
2022-12-12T00:33:03.970Z,-5.04
2022-12-12T00:38:33.720Z,-4.88
2022-12-12T00:44:03.028Z,-4.99
2022-12-12T00:49:33.892Z,-4.67
2022-12-12T00:52:22.244Z,-4.61
2022-12-12T01:00:34.678Z,-4.48
2022-12-12T01:03:24.642Z,-4.58
2022-12-12T01:06:14.029Z,-4.53
2022-12-12T01:11:44.933Z,-4.33
2022-12-12T01:17:20.489Z,-4.26
2022-12-12T01:20:14.119Z,-4.20
2022-12-12T01:25:50.664Z,-4.24
2022-12-12T01:31:21.732Z,-4.19
2022-12-12T01:36:56.821Z,-4.54
2022-12-12T01:42:33.910Z,-4.82
2022-12-12T01:46:24.306Z,-4.91
2022-12-12T01:52:14.774Z,-4.47
2022-12-12T01:58:01.838Z,-4.25
2022-12-12T02:03:39.585Z,-3.95
2022-12-12T02:09:16.460Z,-4.10
2022-12-12T02:14:54.518Z,-4.25
2022-12-12T02:24:12.471Z,-4.16
2022-12-12T02:30:23.583Z,-4.06
2022-12-12T02:33:28.892Z,-4.04
2022-12-12T02:39:10.613Z,-3.89
2022-12-12T02:50:26.060Z,-3.87
2022-12-12T02:56:06.129Z,-3.80
2022-12-12T03:07:37.421Z,-4.01
2022-12-12T03:13:29.676Z,-3.98
2022-12-12T03:21:52.835Z,-3.91
2022-12-12T03:27:25.693Z,-3.85
2022-12-12T03:33:00.734Z,-3.86
2022-12-12T03:35:52.111Z,-3.99
2022-12-12T03:41:24.641Z,-4.17
2022-12-12T03:47:02.772Z,-4.29
2022-12-12T03:55:30.531Z,-4.57
2022-12-12T04:01:00.635Z,-4.38
2022-12-12T04:03:52.529Z,-4.50
2022-12-12T04:06:44.946Z,-4.43
2022-12-12T04:12:42.884Z,-4.12
2022-12-12T04:18:41.825Z,-3.83
2022-12-12T04:21:52.003Z,-3.96
2022-12-12T04:27:31.070Z,-3.82
2022-12-12T04:35:51.457Z,-3.63
2022-12-12T04:41:28.404Z,-3.44
2022-12-12T04:47:08.135Z,-3.38
2022-12-12T04:52:48.237Z,-3.29
2022-12-12T04:55:38.880Z,-3.23
2022-12-12T05:04:03.312Z,-3.18
2022-12-12T05:09:40.332Z,-3.03
2022-12-12T05:15:09.299Z,-2.99
2022-12-12T05:20:50.026Z,-3.08
2022-12-12T05:26:30.951Z,-2.94
2022-12-12T05:31:59.685Z,-2.74
2022-12-12T05:37:34.162Z,-2.82
2022-12-12T05:43:07.004Z,-3.08
2022-12-12T05:48:44.393Z,-3.10
2022-12-12T05:54:20.394Z,-3.23
2022-12-12T05:57:09.164Z,-3.38
2022-12-12T06:02:44.648Z,-3.24
2022-12-12T06:11:31.871Z,-3.69
2022-12-12T06:14:23.001Z,-3.74
2022-12-12T06:20:02.622Z,-3.94
2022-12-12T06:25:36.476Z,-3.73
2022-12-12T06:31:11.622Z,-3.68
2022-12-12T06:36:43.882Z,-3.52
2022-12-12T06:39:32.127Z,-3.32
2022-12-12T06:45:01.919Z,-3.28
2022-12-12T06:47:52.381Z,-3.40
2022-12-12T06:53:25.219Z,-3.30
2022-12-12T06:56:16.132Z,-3.35
2022-12-12T06:59:05.234Z,-3.39
2022-12-12T07:04:54.046Z,-3.37
2022-12-12T07:10:30.580Z,-3.42
2022-12-12T07:13:19.252Z,-3.38
2022-12-12T07:18:59.167Z,-3.53
2022-12-12T07:21:48.812Z,-3.74
2022-12-12T07:27:25.261Z,-3.45
2022-12-12T07:30:14.839Z,-3.58
2022-12-12T07:35:52.169Z,-3.53
2022-12-12T07:41:33.246Z,-3.67
2022-12-12T07:47:05.260Z,-3.32
2022-12-12T07:52:42.837Z,-3.14
2022-12-12T07:58:29.891Z,-3.13
2022-12-12T08:01:20.109Z,-2.97
2022-12-12T08:04:08.554Z,-3.12
2022-12-12T08:07:03.950Z,-3.15
2022-12-12T08:09:48.807Z,-3.09
2022-12-12T08:12:40.164Z,-3.08
2022-12-12T08:18:16.842Z,-2.93
2022-12-12T08:23:52.322Z,-3.22
2022-12-12T08:29:22.912Z,-3.02
2022-12-12T08:32:11.794Z,-3.15
2022-12-12T08:35:00.896Z,-3.00
2022-12-12T08:40:29.576Z,-2.89
2022-12-12T08:46:03.671Z,-3.06
2022-12-12T08:48:52.342Z,-3.02
2022-12-12T08:54:26.426Z,-3.08
2022-12-12T09:00:20.321Z,-2.91
2022-12-12T09:05:58.644Z,-2.86
2022-12-12T09:32:19.958Z,-3.04
2022-12-12T09:37:54.056Z,-2.87
2022-12-12T09:43:29.981Z,-2.91
2022-12-12T09:49:16.579Z,-3.20
2022-12-12T09:54:50.323Z,-3.44
2022-12-12T10:06:52.352Z,-3.21
2022-12-12T10:09:49.663Z,-3.26
2022-12-12T10:15:29.572Z,-3.31
2022-12-12T10:21:13.821Z,-2.92
2022-12-12T10:24:12.501Z,-2.95
2022-12-12T10:29:51.596Z,-2.82
2022-12-12T10:35:33.109Z,-2.51
2022-12-12T10:44:20.425Z,-2.38
2022-12-12T10:49:59.050Z,-2.54
2022-12-12T10:52:47.743Z,-2.74
2022-12-12T10:58:30.180Z,-2.65
2022-12-12T11:02:00.348Z,-2.49
2022-12-12T11:04:19.558Z,-2.44
2022-12-12T11:09:48.606Z,-2.11
2022-12-12T11:15:21.090Z,-2.14
2022-12-12T11:23:34.770Z,-2.33
2022-12-12T11:29:06.024Z,-2.14
2022-12-12T11:34:36.629Z,-2.04
2022-12-12T11:43:20.217Z,-2.20
2022-12-12T11:49:18.895Z,-2.57
2022-12-12T11:55:13.114Z,-2.84
2022-12-12T12:01:00.654Z,-3.05
2022-12-12T12:07:03.519Z,-2.92
2022-12-12T12:12:44.813Z,-3.15
2022-12-12T12:18:34.157Z,-3.28
2022-12-12T12:24:42.057Z,-3.13
2022-12-12T12:43:58.872Z,-2.87
2022-12-12T12:46:52.907Z,-3.24
2022-12-12T12:52:36.327Z,-2.99
2022-12-12T12:58:06.893Z,-2.92
2022-12-12T13:03:44.905Z,-2.54
2022-12-12T13:09:49.807Z,-2.90
2022-12-12T13:12:43.488Z,-2.87
2022-12-12T13:15:49.016Z,-2.85
2022-12-12T13:21:40.528Z,-3.07
2022-12-12T13:27:35.851Z,-2.88
2022-12-12T13:33:22.254Z,-2.95
2022-12-12T13:39:04.904Z,-2.76
2022-12-12T13:44:45.508Z,-2.84
2022-12-12T13:50:42.037Z,-3.30
2022-12-12T13:53:30.343Z,-3.31
2022-12-12T13:59:35.634Z,-3.08
2022-12-12T14:05:28.408Z,-2.86
2022-12-12T14:08:29.448Z,-2.77
2022-12-12T14:17:21.186Z,-3.21
2022-12-12T14:23:27.419Z,-3.21
2022-12-12T14:26:50.545Z,-3.43
2022-12-12T14:32:41.529Z,-3.48
2022-12-12T14:38:22.627Z,-3.86
2022-12-12T14:41:15.100Z,-3.85
2022-12-12T14:46:49.276Z,-3.71
2022-12-12T14:49:37.572Z,-3.86
2022-12-12T14:52:27.747Z,-3.87
2022-12-12T14:58:05.576Z,-3.65
2022-12-12T15:00:56.368Z,-3.69
2022-12-12T15:06:42.707Z,-3.63
2022-12-12T15:09:32.072Z,-3.71
2022-12-12T15:15:24.576Z,-3.78
2022-12-12T15:21:01.110Z,-3.59
2022-12-12T15:26:38.470Z,-3.86
2022-12-12T15:32:15.852Z,-3.77
2022-12-12T15:35:07.863Z,-3.75
2022-12-12T15:40:43.095Z,-3.48
2022-12-12T15:43:35.291Z,-3.65
2022-12-12T15:46:23.896Z,-3.61
2022-12-12T15:49:38.236Z,-3.76
2022-12-12T15:55:30.174Z,-3.89
2022-12-12T15:58:29.264Z,-4.02
2022-12-12T16:01:22.120Z,-4.20
2022-12-12T16:04:27.964Z,-4.15
2022-12-12T16:10:26.135Z,-4.29
2022-12-12T16:16:35.806Z,-4.27
2022-12-12T16:22:21.020Z,-4.30
2022-12-12T16:27:59.259Z,-4.28
2022-12-12T16:33:41.999Z,-4.24
2022-12-12T16:39:34.358Z,-4.33
2022-12-12T16:45:12.364Z,-4.35
2022-12-12T16:50:41.878Z,-4.41
2022-12-12T16:53:30.464Z,-4.36
2022-12-12T16:59:10.173Z,-4.25
2022-12-12T17:01:58.088Z,-4.19
2022-12-12T17:07:37.502Z,-4.16
2022-12-12T17:10:26.922Z,-4.22
2022-12-12T17:15:58.906Z,-4.35
2022-12-12T17:21:27.373Z,-4.23
2022-12-12T17:27:05.365Z,-4.44
2022-12-12T17:32:36.770Z,-4.26
2022-12-12T17:35:26.939Z,-4.30
2022-12-12T17:38:16.549Z,-4.25
2022-12-12T17:41:07.569Z,-4.39
2022-12-12T17:46:46.860Z,-4.31
2022-12-12T17:52:17.756Z,-4.26
2022-12-12T17:55:53.604Z,-4.27
2022-12-12T17:57:57.176Z,-4.44
2022-12-12T18:00:45.735Z,-4.40
2022-12-12T18:03:33.623Z,-4.38
2022-12-12T18:09:12.460Z,-4.44
2022-12-12T18:12:00.896Z,-4.51
2022-12-12T18:17:34.018Z,-4.60
2022-12-12T18:20:26.613Z,-4.70
2022-12-12T18:23:12.163Z,-4.82
2022-12-12T18:26:05.118Z,-4.80
2022-12-12T18:31:46.530Z,-4.92
2022-12-12T18:34:35.461Z,-4.97
2022-12-12T18:40:14.392Z,-5.02
2022-12-12T18:48:33.096Z,-4.80
2022-12-12T18:56:57.336Z,-4.89
2022-12-12T19:05:18.811Z,-4.92
2022-12-12T19:11:22.109Z,-5.16
2022-12-12T19:16:58.636Z,-5.23
2022-12-12T19:22:50.499Z,-5.26
2022-12-12T19:31:08.393Z,-5.07
2022-12-12T19:36:44.747Z,-5.24
2022-12-12T19:39:35.077Z,-5.38
2022-12-12T19:42:23.773Z,-5.32
2022-12-12T19:45:12.769Z,-5.23
2022-12-12T19:48:01.162Z,-5.22
2022-12-12T19:56:35.270Z,-5.08
2022-12-12T20:02:23.211Z,-5.02
2022-12-12T20:07:54.102Z,-5.05
2022-12-12T20:13:30.979Z,-5.09
2022-12-12T20:19:08.307Z,-5.06
2022-12-12T20:22:01.868Z,-5.05
2022-12-12T20:24:46.944Z,-4.75
2022-12-12T20:27:35.269Z,-4.79
2022-12-12T20:30:24.659Z,-4.82
2022-12-12T20:36:03.060Z,-4.58
2022-12-12T20:38:51.433Z,-4.74
2022-12-12T20:41:41.433Z,-4.83
2022-12-12T20:47:16.391Z,-4.79
2022-12-12T20:52:50.236Z,-4.94
2022-12-12T20:58:24.521Z,-5.10
2022-12-12T21:04:04.059Z,-5.09
2022-12-12T21:09:36.612Z,-5.01
2022-12-12T21:12:28.343Z,-5.20
2022-12-12T21:15:17.868Z,-5.29
2022-12-12T21:18:07.702Z,-5.14
2022-12-12T21:23:36.617Z,-5.26
2022-12-12T21:26:28.939Z,-5.30
2022-12-12T21:32:18.279Z,-5.30
2022-12-12T21:35:10.076Z,-5.29
2022-12-12T21:41:05.959Z,-5.29
2022-12-12T21:43:55.333Z,-5.41
2022-12-12T21:49:28.029Z,-5.32
2022-12-12T21:55:10.109Z,-5.54
2022-12-12T21:58:00.018Z,-5.51
2022-12-12T22:00:51.430Z,-5.46
2022-12-12T22:06:28.621Z,-5.37
2022-12-12T22:12:04.273Z,-5.37
2022-12-12T22:14:47.162Z,-5.46
2022-12-12T22:17:35.576Z,-5.55
2022-12-12T22:23:26.779Z,-5.47
2022-12-12T22:26:17.477Z,-5.34
2022-12-12T22:29:08.571Z,-5.42
2022-12-12T22:31:56.697Z,-5.47
2022-12-12T22:37:47.516Z,-5.42
2022-12-12T22:40:40.881Z,-5.43
2022-12-12T22:43:30.506Z,-5.39
2022-12-12T22:49:06.947Z,-5.24
2022-12-12T22:51:57.313Z,-5.15
2022-12-12T23:00:18.748Z,-5.18
2022-12-12T23:05:57.033Z,-5.03
2022-12-12T23:08:47.516Z,-5.21
2022-12-12T23:14:26.058Z,-5.08
2022-12-12T23:19:53.627Z,-5.14
2022-12-12T23:22:44.466Z,-5.10
2022-12-12T23:28:18.527Z,-5.06
2022-12-12T23:31:10.450Z,-5.11
2022-12-12T23:36:46.782Z,-5.06
2022-12-12T23:39:36.036Z,-5.09
2022-12-12T23:45:17.525Z,-5.15
2022-12-12T23:50:45.354Z,-4.93
2022-12-12T23:56:21.989Z,-5.09
2022-12-12T23:59:17.087Z,-5.13
